Time;durP1;ratioP1;P1;durP2;ratioP2;P2;SDS_P1;SDS_P2;PMS_P1;PMS_P2;Temp;Humidity;BMP_temperature;BMP_pressure;BME280_temperature;BME280_humidity;BME280_pressure;Samples;Min_cycle;Max_cycle;Signal;HPM_P1;HPM_P2
2022/04/17 00:02:22;;;;;;;83.00;65.77;;;8.60;93.20;;;;;;5088458;28;20398;-74
2022/04/17 00:04:48;;;;;;;79.35;63.95;;;8.50;93.30;;;;;;5089193;28;20447;-74
2022/04/17 00:07:13;;;;;;;76.05;61.08;;;8.50;93.20;;;;;;5088203;28;20447;-74
2022/04/17 00:09:39;;;;;;;77.33;61.27;;;8.40;92.80;;;;;;5088959;28;20402;-74
2022/04/17 00:12:05;;;;;;;76.05;61.38;;;8.40;93.00;;;;;;5088474;28;20438;-75
2022/04/17 00:14:31;;;;;;;79.00;61.80;;;8.30;93.00;;;;;;5088322;28;20455;-74
2022/04/17 00:16:57;;;;;;;76.72;61.03;;;8.30;92.60;;;;;;5088883;28;20413;-74
2022/04/17 00:19:23;;;;;;;75.73;60.03;;;8.30;92.80;;;;;;5088402;28;20455;-74
2022/04/17 00:21:49;;;;;;;77.73;60.43;;;8.20;92.70;;;;;;5087244;28;20938;-75
2022/04/17 00:24:15;;;;;;;75.00;58.23;;;8.20;92.80;;;;;;5087135;28;20406;-75
2022/04/17 00:26:41;;;;;;;78.22;58.97;;;8.20;92.70;;;;;;5088611;28;20487;-74
2022/04/17 00:29:07;;;;;;;74.82;58.05;;;8.10;92.40;;;;;;5088131;28;20472;-75
2022/04/17 00:31:33;;;;;;;72.43;56.80;;;8.10;92.50;;;;;;5088315;28;20394;-74
2022/04/17 00:33:58;;;;;;;72.82;55.65;;;8.10;92.50;;;;;;5088216;28;20406;-74
2022/04/17 00:36:24;;;;;;;71.13;55.03;;;8.10;92.90;;;;;;5088005;28;20421;-75
2022/04/17 00:38:50;;;;;;;70.03;53.43;;;8.00;92.80;;;;;;5088363;28;20398;-74
2022/04/17 00:41:15;;;;;;;72.93;55.03;;;8.00;92.80;;;;;;5070281;28;20441;-75
2022/04/17 00:43:46;;;;;;;72.30;55.17;;;7.90;93.20;;;;;;5088263;28;20922;-74
2022/04/17 00:46:12;;;;;;;64.55;51.67;;;7.90;93.10;;;;;;5088305;28;20798;-74
2022/04/17 00:48:38;;;;;;;59.00;45.15;;;7.80;92.70;;;;;;5088009;28;20938;-74
2022/04/17 00:51:05;;;;;;;60.07;46.67;;;7.80;92.20;;;;;;5086912;28;20410;-74
2022/04/17 00:53:31;;;;;;;55.40;41.90;;;7.80;91.50;;;;;;5075027;28;21075;-74
2022/04/17 00:55:57;;;;;;;51.97;40.55;;;7.80;91.40;;;;;;5067769;28;20402;-74
2022/04/17 00:58:24;;;;;;;53.08;40.90;;;7.80;91.10;;;;;;5067681;28;20392;-74
2022/04/17 01:00:50;;;;;;;53.45;40.13;;;7.90;90.90;;;;;;5067891;28;20400;-74
2022/04/17 01:03:17;;;;;;;51.37;38.63;;;7.90;91.10;;;;;;5067527;28;20406;-74
2022/04/17 01:05:43;;;;;;;50.72;38.40;;;7.80;90.80;;;;;;5067757;28;20405;-74
2022/04/17 01:08:10;;;;;;;49.25;36.65;;;7.90;91.10;;;;;;5067096;28;20510;-74
2022/04/17 01:10:37;;;;;;;55.13;40.85;;;7.90;90.90;;;;;;5067883;28;20457;-74
2022/04/17 01:13:04;;;;;;;50.67;39.47;;;7.90;91.70;;;;;;5066198;28;20407;-74
2022/04/17 01:15:30;;;;;;;48.45;37.05;;;7.80;91.90;;;;;;5066531;28;20464;-75
2022/04/17 01:17:56;;;;;;;43.15;32.67;;;7.80;92.20;;;;;;5067822;28;20490;-74
2022/04/17 01:20:22;;;;;;;48.63;37.00;;;7.70;91.60;;;;;;5066864;28;20491;-75
2022/04/17 01:22:49;;;;;;;49.72;37.63;;;7.70;92.00;;;;;;5066275;28;20426;-74
2022/04/17 01:28:01;;;;;;;46.60;35.65;;;7.70;93.20;;;;;;5067433;28;20439;-74
2022/04/17 01:30:27;;;;;;;44.67;34.25;;;7.60;92.60;;;;;;5065985;28;20404;-75
2022/04/17 01:32:52;;;;;;;42.67;34.80;;;7.60;92.80;;;;;;5067994;28;20906;-74
2022/04/17 01:35:18;;;;;;;38.60;29.33;;;7.60;92.90;;;;;;5067230;28;20407;-74
2022/04/17 01:37:47;;;;;;;43.03;33.03;;;7.60;93.20;;;;;;5067369;28;20940;-74
2022/04/17 01:40:13;;;;;;;44.72;33.75;;;7.60;93.20;;;;;;5067444;28;20403;-75
2022/04/17 01:42:38;;;;;;;43.40;32.25;;;7.50;93.10;;;;;;5067572;28;20449;-75
2022/04/17 01:45:05;;;;;;;38.10;29.43;;;7.50;93.30;;;;;;5066008;28;20437;-74
2022/04/17 01:47:31;;;;;;;39.58;29.95;;;7.50;93.50;;;;;;5066806;28;20420;-75
2022/04/17 01:49:56;;;;;;;36.80;30.55;;;7.40;93.50;;;;;;5067636;28;20492;-75
2022/04/17 01:52:22;;;;;;;37.30;28.52;;;7.40;94.40;;;;;;5068647;28;20411;-74
2022/04/17 01:54:48;;;;;;;38.33;28.90;;;7.30;94.10;;;;;;5087393;28;20412;-74
2022/04/17 01:57:13;;;;;;;32.80;25.63;;;7.30;94.50;;;;;;5085648;28;20418;-74
2022/04/17 01:59:39;;;;;;;36.88;28.08;;;7.20;94.40;;;;;;5087279;28;20433;-75
2022/04/17 02:02:05;;;;;;;35.85;27.52;;;7.20;94.60;;;;;;5085964;28;20406;-75
2022/04/17 02:04:35;;;;;;;38.40;28.90;;;7.20;95.10;;;;;;5087194;28;20451;-74
2022/04/17 02:07:05;;;;;;;32.30;25.17;;;7.20;95.80;;;;;;5086125;28;20437;-74
2022/04/17 02:09:30;;;;;;;26.55;20.50;;;7.10;95.80;;;;;;5086559;28;20405;-74
2022/04/17 02:11:56;;;;;;;30.27;23.67;;;7.10;94.70;;;;;;5085306;28;20485;-75
2022/04/17 02:14:22;;;;;;;32.47;26.17;;;7.20;95.10;;;;;;5086259;28;20485;-75
2022/04/17 02:16:48;;;;;;;30.65;23.38;;;7.10;95.70;;;;;;5089732;28;20775;-75
2022/04/17 02:19:14;;;;;;;30.98;24.05;;;7.10;96.10;;;;;;5090398;28;20458;-75
2022/04/17 02:21:39;;;;;;;30.85;23.80;;;7.10;96.50;;;;;;5057766;28;20429;-75
2022/04/17 02:24:06;;;;;;;29.13;22.83;;;7.10;96.80;;;;;;5048443;28;20456;-75
2022/04/17 02:26:33;;;;;;;32.55;24.65;;;7.00;96.70;;;;;;5061371;28;20407;-75
2022/04/17 02:28:59;;;;;;;29.67;22.92;;;7.00;96.80;;;;;;5069438;28;20514;-75
2022/04/17 02:31:26;;;;;;;26.58;19.67;;;6.90;97.20;;;;;;5085467;28;20456;-75
2022/04/17 02:33:52;;;;;;;27.02;20.67;;;7.00;97.50;;;;;;5088792;28;20406;-75
2022/04/17 02:36:19;;;;;;;27.08;20.33;;;6.90;97.20;;;;;;5087683;28;20449;-75
2022/04/17 02:38:45;;;;;;;24.45;18.95;;;6.90;96.90;;;;;;5082289;28;20408;-75
2022/04/17 02:41:11;;;;;;;25.05;20.15;;;6.90;97.40;;;;;;5068414;28;20484;-75
2022/04/17 02:43:36;;;;;;;29.40;21.40;;;6.90;97.10;;;;;;5069132;28;20443;-75
2022/04/17 02:46:02;;;;;;;26.10;21.23;;;6.80;97.30;;;;;;5068821;28;20872;-75
2022/04/17 02:48:28;;;;;;;27.85;21.55;;;6.80;97.50;;;;;;5069973;28;20424;-75
2022/04/17 02:50:55;;;;;;;28.48;21.83;;;6.80;97.80;;;;;;5069783;28;20407;-75
2022/04/17 02:53:21;;;;;;;28.88;21.67;;;6.70;98.30;;;;;;5068510;28;20526;-75
2022/04/17 02:55:47;;;;;;;27.80;20.58;;;6.70;98.50;;;;;;5076666;28;20900;-75
2022/04/17 02:58:14;;;;;;;28.33;20.27;;;6.70;98.70;;;;;;5088707;28;20424;-75
2022/04/17 03:06:10;;;;;;;26.90;22.63;;;6.60;99.70;;;;;;5088542;28;20418;-74
2022/04/17 03:08:39;;;;;;;27.25;22.23;;;6.60;99.90;;;;;;5088451;28;20464;-74
2022/04/17 03:11:04;;;;;;;28.70;21.77;;;6.50;99.90;;;;;;5089780;28;20418;-75
2022/04/17 03:13:31;;;;;;;30.17;22.10;;;6.50;99.90;;;;;;5088577;28;20489;-75
2022/04/17 03:15:56;;;;;;;29.50;22.00;;;6.60;99.90;;;;;;5088508;28;21362;-75
2022/04/17 03:18:22;;;;;;;30.10;22.27;;;6.60;99.90;;;;;;5088634;28;20497;-75
2022/04/17 03:20:47;;;;;;;29.08;22.30;;;6.60;99.90;;;;;;5088176;28;20410;-75
2022/04/17 03:23:14;;;;;;;29.83;22.33;;;6.60;99.90;;;;;;5088493;28;20406;-75
2022/04/17 03:25:40;;;;;;;30.70;23.10;;;6.60;99.90;;;;;;5089567;28;20402;-75
2022/04/17 03:28:06;;;;;;;30.48;22.65;;;6.60;99.90;;;;;;5089311;28;20425;-75
2022/04/17 03:30:31;;;;;;;29.95;22.92;;;6.60;99.90;;;;;;5077143;28;20403;-75
2022/04/17 03:32:59;;;;;;;31.30;22.60;;;6.50;99.90;;;;;;5069160;28;20482;-75
2022/04/17 03:35:24;;;;;;;30.17;22.85;;;6.50;99.90;;;;;;5068903;28;20400;-74
2022/04/17 03:37:50;;;;;;;29.00;22.97;;;6.50;99.90;;;;;;5069188;28;20400;-75
2022/04/17 03:40:16;;;;;;;30.02;23.10;;;6.50;99.90;;;;;;5068998;28;20494;-74
2022/04/17 03:42:42;;;;;;;29.73;24.20;;;6.50;99.90;;;;;;5069110;28;20403;-74
2022/04/17 03:45:14;;;;;;;31.67;23.33;;;6.40;99.90;;;;;;5068895;28;20387;-75
2022/04/17 03:47:40;;;;;;;31.65;23.50;;;6.40;99.90;;;;;;5068970;28;20420;-75
2022/04/17 03:50:07;;;;;;;29.38;23.35;;;6.30;99.90;;;;;;5069005;28;20758;-75
2022/04/17 03:52:44;;;;;;;32.37;24.87;;;6.20;99.90;;;;;;5068640;28;20396;-75
2022/04/17 03:55:10;;;;;;;32.95;24.83;;;6.20;99.90;;;;;;5051013;28;21071;-75
2022/04/17 03:57:36;;;;;;;31.38;25.20;;;6.10;99.90;;;;;;5068943;28;20400;-75
2022/04/17 04:00:05;;;;;;;34.35;24.83;;;6.10;99.90;;;;;;5068431;28;20396;-75
2022/04/17 04:02:30;;;;;;;34.00;26.63;;;6.10;99.90;;;;;;5068863;28;20750;-75
2022/04/17 04:04:57;;;;;;;34.55;25.75;;;6.00;99.90;;;;;;5068624;28;20462;-75
2022/04/17 04:07:26;;;;;;;32.55;25.35;;;6.00;99.90;;;;;;5067607;28;20404;-75
2022/04/17 04:09:52;;;;;;;33.95;26.00;;;6.00;99.90;;;;;;5067027;28;20426;-75
2022/04/17 04:12:18;;;;;;;34.75;26.05;;;5.90;99.90;;;;;;5067711;28;20747;-75
2022/04/17 04:14:44;;;;;;;32.80;26.48;;;5.90;99.90;;;;;;5067079;28;20404;-75
2022/04/17 04:17:10;;;;;;;34.23;27.03;;;5.90;99.90;;;;;;5067914;28;20421;-74
2022/04/17 04:19:36;;;;;;;35.20;27.25;;;5.80;99.90;;;;;;5068456;28;20492;-75
2022/04/17 04:22:02;;;;;;;35.38;27.42;;;5.80;99.90;;;;;;5066683;28;20411;-75
2022/04/17 04:24:28;;;;;;;33.95;27.02;;;5.70;99.90;;;;;;5068141;28;20407;-75
2022/04/17 04:29:38;;;;;;;38.33;28.13;;;5.70;99.90;;;;;;5072503;28;20547;-74
2022/04/17 04:32:04;;;;;;;36.17;27.73;;;5.70;99.90;;;;;;5088537;28;20888;-75
2022/04/17 04:34:30;;;;;;;35.40;26.95;;;5.70;99.90;;;;;;5087168;28;21209;-75
2022/04/17 04:36:57;;;;;;;35.13;27.20;;;5.70;99.90;;;;;;5087651;28;20409;-75
2022/04/17 04:39:23;;;;;;;37.58;28.98;;;5.60;99.90;;;;;;5069872;28;20405;-75
2022/04/17 04:41:48;;;;;;;37.72;27.98;;;5.70;99.90;;;;;;5087013;28;21001;-75
2022/04/17 04:44:14;;;;;;;36.53;29.13;;;5.70;99.90;;;;;;5088095;28;20394;-75
2022/04/17 04:46:40;;;;;;;36.95;27.67;;;5.60;99.90;;;;;;5087969;28;20389;-75
2022/04/17 04:51:50;;;;;;;32.75;25.48;;;5.60;99.90;;;;;;5087916;28;20749;-75
2022/04/17 04:54:16;;;;;;;36.67;26.77;;;5.70;99.90;;;;;;5087974;28;20455;-75
2022/04/17 04:56:41;;;;;;;34.72;26.90;;;5.70;99.90;;;;;;5086734;28;20400;-75
2022/04/17 04:59:09;;;;;;;33.00;25.60;;;5.70;99.90;;;;;;5087796;28;20963;-75
2022/04/17 05:01:34;;;;;;;33.72;25.58;;;5.80;99.90;;;;;;5088102;28;20434;-75
2022/04/17 05:04:00;;;;;;;32.90;25.77;;;5.80;99.90;;;;;;5088501;28;20486;-75
2022/04/17 05:06:28;;;;;;;31.40;24.23;;;5.80;99.90;;;;;;5087694;28;20465;-75
2022/04/17 05:08:54;;;;;;;33.10;24.38;;;5.80;99.90;;;;;;5087324;28;20426;-75
2022/04/17 05:11:20;;;;;;;29.03;23.23;;;5.90;99.90;;;;;;5086572;28;20406;-75
2022/04/17 05:13:46;;;;;;;29.37;22.77;;;5.90;99.90;;;;;;5086591;28;20410;-75
2022/04/17 05:16:13;;;;;;;30.92;23.52;;;6.00;99.90;;;;;;5087685;28;20405;-75
2022/04/17 05:18:39;;;;;;;31.50;24.30;;;6.00;99.90;;;;;;5087753;28;20469;-75
2022/04/17 05:21:05;;;;;;;31.70;23.88;;;6.00;99.90;;;;;;5087739;28;20489;-75
2022/04/17 05:23:32;;;;;;;30.77;23.42;;;6.10;99.90;;;;;;5088030;28;20401;-75
2022/04/17 05:26:00;;;;;;;31.25;24.27;;;6.10;99.90;;;;;;5087745;28;20466;-75
2022/04/17 05:28:27;;;;;;;30.35;22.85;;;6.20;99.90;;;;;;5087093;28;20505;-75
2022/04/17 05:30:53;;;;;;;30.13;22.73;;;6.20;99.90;;;;;;5071068;28;20421;-75
2022/04/17 05:33:20;;;;;;;31.13;23.17;;;6.30;99.90;;;;;;5067577;28;20473;-75
2022/04/17 05:35:50;;;;;;;31.55;24.05;;;6.30;99.90;;;;;;5067650;28;20416;-75
2022/04/17 05:38:17;;;;;;;30.75;22.85;;;6.40;99.90;;;;;;5067265;28;20396;-75
2022/04/17 05:40:44;;;;;;;29.23;21.92;;;6.40;99.90;;;;;;5067250;28;20743;-75
2022/04/17 05:43:11;;;;;;;27.05;22.13;;;6.50;99.90;;;;;;5067045;28;20410;-75
2022/04/17 05:45:40;;;;;;;29.48;21.95;;;6.50;99.90;;;;;;5067614;28;20406;-75
2022/04/17 05:48:07;;;;;;;28.73;22.02;;;6.50;99.90;;;;;;5067373;28;20817;-75
2022/04/17 05:50:33;;;;;;;29.85;21.73;;;6.60;99.90;;;;;;5069202;28;21067;-75
2022/04/17 05:52:59;;;;;;;28.53;21.17;;;6.60;99.90;;;;;;5070982;28;20409;-75
2022/04/17 05:55:25;;;;;;;27.05;20.90;;;6.70;99.90;;;;;;5071200;28;20399;-75
2022/04/17 05:57:51;;;;;;;27.03;20.63;;;6.70;99.90;;;;;;5071307;28;20790;-75
2022/04/17 06:00:16;;;;;;;26.77;20.83;;;6.80;99.90;;;;;;5070232;28;20411;-75
2022/04/17 06:02:46;;;;;;;27.60;20.67;;;6.80;99.90;;;;;;5071096;28;21016;-75
2022/04/17 06:05:12;;;;;;;25.90;19.25;;;6.80;99.90;;;;;;5070969;28;20407;-75
2022/04/17 06:07:39;;;;;;;25.50;19.30;;;6.90;99.90;;;;;;5071126;28;20435;-75
2022/04/17 06:10:07;;;;;;;27.02;19.45;;;7.00;99.90;;;;;;5071026;28;20986;-75
2022/04/17 06:12:33;;;;;;;24.75;19.30;;;7.00;99.90;;;;;;5070417;28;20828;-75
2022/04/17 06:14:59;;;;;;;27.77;19.73;;;7.10;99.90;;;;;;5068622;28;21129;-76
2022/04/17 06:17:25;;;;;;;26.08;19.90;;;7.10;99.90;;;;;;5069288;28;20411;-75
2022/04/17 06:19:50;;;;;;;25.00;18.97;;;7.20;99.90;;;;;;5070015;28;20763;-75
2022/04/17 06:22:17;;;;;;;25.70;19.20;;;7.20;99.90;;;;;;5068974;28;20472;-75
2022/04/17 06:24:46;;;;;;;26.38;18.85;;;7.30;99.90;;;;;;5069250;28;20414;-75
2022/04/17 06:27:12;;;;;;;26.95;19.30;;;7.30;99.90;;;;;;5069695;28;20452;-75
2022/04/17 06:29:37;;;;;;;24.10;17.80;;;7.40;99.90;;;;;;5075335;28;20931;-75
2022/04/17 06:32:03;;;;;;;25.58;18.70;;;7.50;99.90;;;;;;5090614;28;20398;-75
2022/04/17 06:34:29;;;;;;;24.17;18.25;;;7.50;99.90;;;;;;5090575;28;20927;-75
2022/04/17 06:36:54;;;;;;;22.93;17.67;;;7.60;99.90;;;;;;5089630;28;20410;-75
2022/04/17 06:39:20;;;;;;;23.17;17.20;;;7.60;99.90;;;;;;5089983;28;20430;-75
2022/04/17 06:41:45;;;;;;;23.57;18.03;;;7.60;99.90;;;;;;5089266;28;20402;-75
2022/04/17 06:44:12;;;;;;;23.38;17.58;;;7.70;99.90;;;;;;5089220;28;20401;-75
2022/04/17 06:46:38;;;;;;;23.17;17.48;;;7.70;99.90;;;;;;5089561;28;20399;-75
2022/04/17 06:49:06;;;;;;;22.17;16.92;;;7.80;99.90;;;;;;5089098;28;20430;-75
2022/04/17 06:51:31;;;;;;;23.15;17.52;;;7.80;99.90;;;;;;5090068;28;20398;-75
2022/04/17 06:53:57;;;;;;;22.92;17.65;;;7.90;99.90;;;;;;5090669;28;20480;-76
2022/04/17 06:56:23;;;;;;;22.17;16.87;;;7.90;99.90;;;;;;5089425;28;20428;-75
2022/04/17 06:58:48;;;;;;;22.57;16.77;;;8.00;99.90;;;;;;5089564;28;20451;-76
2022/04/17 07:01:15;;;;;;;21.63;15.27;;;8.10;99.90;;;;;;5089745;28;20402;-76
2022/04/17 07:03:44;;;;;;;20.00;15.60;;;8.20;99.90;;;;;;5090639;28;20467;-76
2022/04/17 07:06:09;;;;;;;21.63;16.05;;;8.30;99.90;;;;;;5088964;28;20435;-75
2022/04/17 07:08:35;;;;;;;21.35;16.02;;;8.30;99.90;;;;;;5089457;28;20466;-76
2022/04/17 07:11:00;;;;;;;21.70;15.77;;;8.40;99.90;;;;;;5090087;28;20409;-75
2022/04/17 07:13:26;;;;;;;22.05;16.08;;;8.50;99.70;;;;;;5088696;28;20760;-76
2022/04/17 07:15:52;;;;;;;20.37;15.40;;;8.50;99.90;;;;;;5088443;28;20452;-76
2022/04/17 07:18:18;;;;;;;20.30;15.07;;;8.60;99.90;;;;;;5089361;28;20424;-76
2022/04/17 07:20:44;;;;;;;20.33;14.93;;;8.60;99.80;;;;;;5088781;28;20402;-76
2022/04/17 07:23:10;;;;;;;18.25;13.30;;;8.70;99.80;;;;;;5088718;28;20405;-76
2022/04/17 07:25:36;;;;;;;17.20;12.17;;;8.80;99.90;;;;;;5088360;28;20390;-76
2022/04/17 07:28:03;;;;;;;17.05;12.88;;;8.90;98.70;;;;;;5087530;28;21168;-76
2022/04/17 07:30:33;;;;;;;17.00;13.13;;;9.00;98.70;;;;;;5076929;28;20404;-76
2022/04/17 07:33:00;;;;;;;17.95;13.38;;;9.10;98.90;;;;;;5067229;28;20404;-76
2022/04/17 07:35:27;;;;;;;17.75;13.32;;;9.20;98.90;;;;;;5066295;28;20412;-76
2022/04/17 07:37:58;;;;;;;17.85;13.20;;;9.20;98.50;;;;;;5067217;28;20408;-76
2022/04/17 07:40:26;;;;;;;19.42;14.23;;;9.30;98.10;;;;;;5067154;28;20748;-76
2022/04/17 07:42:58;;;;;;;18.70;13.60;;;9.40;98.10;;;;;;5068541;28;20403;-76
2022/04/17 07:45:24;;;;;;;17.40;12.63;;;9.50;97.60;;;;;;5067857;28;20411;-76
2022/04/17 07:47:50;;;;;;;16.38;12.27;;;9.60;97.50;;;;;;5067920;28;20426;-76
2022/04/17 07:50:24;;;;;;;16.70;12.13;;;9.60;97.40;;;;;;5068610;28;20773;-76
2022/04/17 07:52:51;;;;;;;16.77;12.73;;;9.70;97.30;;;;;;5069040;28;20408;-76
2022/04/17 07:55:17;;;;;;;15.70;12.48;;;9.80;97.40;;;;;;5067465;28;20404;-76
2022/04/17 08:00:35;;;;;;;16.17;12.50;;;10.00;98.50;;;;;;5068316;28;20408;-76
2022/04/17 08:03:07;;;;;;;15.73;12.35;;;10.00;97.20;;;;;;5067811;28;20775;-76
2022/04/17 08:05:40;;;;;;;17.85;12.02;;;10.10;97.60;;;;;;5068864;28;20400;-76
2022/04/17 08:08:06;;;;;;;15.18;11.85;;;10.10;97.50;;;;;;5065735;28;20925;-76
2022/04/17 08:10:33;;;;;;;13.73;11.05;;;10.20;97.50;;;;;;5052370;28;20417;-76
2022/04/17 08:12:59;;;;;;;14.90;11.23;;;10.30;97.60;;;;;;5046340;28;20439;-76
2022/04/17 08:15:24;;;;;;;17.00;12.25;;;10.40;97.20;;;;;;5062204;28;20440;-76
2022/04/17 08:17:50;;;;;;;16.55;11.57;;;10.40;97.10;;;;;;5067351;28;20901;-76
2022/04/17 08:20:16;;;;;;;16.33;11.87;;;10.50;96.60;;;;;;5067112;28;20522;-75
2022/04/17 08:22:41;;;;;;;14.13;11.10;;;10.50;96.60;;;;;;5062655;28;20409;-76
2022/04/17 08:25:07;;;;;;;14.67;10.87;;;10.60;96.40;;;;;;5046950;28;20972;-76
2022/04/17 08:27:33;;;;;;;14.27;10.95;;;10.70;95.60;;;;;;5060150;28;20431;-76
2022/04/17 08:29:59;;;;;;;14.55;11.18;;;10.80;95.60;;;;;;5066219;28;20991;-76
2022/04/17 08:32:25;;;;;;;15.63;11.68;;;10.90;95.00;;;;;;5053306;28;20449;-75
2022/04/17 08:34:50;;;;;;;13.15;10.55;;;10.90;95.30;;;;;;5068375;28;20433;-76
2022/04/17 08:37:16;;;;;;;11.53;9.73;;;11.00;95.40;;;;;;5068283;28;20404;-76
2022/04/17 08:39:41;;;;;;;12.50;9.43;;;11.10;94.90;;;;;;5067043;28;20408;-76
2022/04/17 08:42:08;;;;;;;11.50;9.33;;;11.20;93.80;;;;;;5067992;28;20404;-75
2022/04/17 08:44:34;;;;;;;10.40;8.30;;;11.30;94.20;;;;;;5068467;28;20444;-75
2022/04/17 08:46:59;;;;;;;9.73;7.40;;;11.40;93.30;;;;;;5066905;28;20511;-75
2022/04/17 08:49:25;;;;;;;8.65;6.78;;;11.50;93.80;;;;;;5056524;28;20848;-75
2022/04/17 08:51:53;;;;;;;9.37;7.10;;;11.60;92.70;;;;;;5063996;28;20424;-74
2022/04/17 08:54:22;;;;;;;10.32;7.68;;;11.70;92.00;;;;;;5063679;28;20499;-74
2022/04/17 08:56:48;;;;;;;11.20;8.15;;;11.80;91.70;;;;;;5063928;28;20428;-74
2022/04/17 08:59:13;;;;;;;9.68;7.15;;;11.90;93.30;;;;;;5052550;28;20829;-75
2022/04/17 09:01:39;;;;;;;8.17;6.20;;;11.90;91.30;;;;;;5048099;28;20401;-75
2022/04/17 09:04:05;;;;;;;7.80;6.43;;;12.00;90.40;;;;;;5057842;28;20582;-75
2022/04/17 09:06:31;;;;;;;9.27;6.80;;;12.10;89.00;;;;;;5058582;28;20449;-75
2022/04/17 09:09:05;;;;;;;8.23;6.53;;;12.20;90.70;;;;;;5047776;28;20426;-74
2022/04/17 09:11:32;;;;;;;9.93;6.93;;;12.30;87.00;;;;;;5047246;28;20907;-75
2022/04/17 09:14:03;;;;;;;9.52;6.70;;;12.30;87.20;;;;;;5050473;28;20436;-75
2022/04/17 09:16:30;;;;;;;10.00;6.40;;;12.40;83.30;;;;;;5066799;28;20482;-74
2022/04/17 09:18:57;;;;;;;8.32;6.63;;;12.40;81.50;;;;;;5066399;28;20404;-75
2022/04/17 09:21:33;;;;;;;10.50;6.72;;;12.50;86.20;;;;;;5065814;28;20426;-75
2022/04/17 09:24:18;;;;;;;9.30;6.90;;;12.90;83.40;;;;;;5060917;28;20421;-74
2022/04/17 09:26:58;;;;;;;8.65;6.85;;;13.70;84.40;;;;;;5065847;28;20510;-75
2022/04/17 09:29:29;;;;;;;7.72;6.63;;;14.50;80.60;;;;;;5073705;28;20437;-76
2022/04/17 09:32:05;;;;;;;8.95;6.15;;;15.10;78.10;;;;;;5076345;28;20429;-76
2022/04/17 09:34:45;;;;;;;8.15;6.03;;;15.70;72.90;;;;;;5049744;28;20413;-76
2022/04/17 09:37:13;;;;;;;8.77;6.15;;;16.30;68.50;;;;;;5033920;28;20433;-76
2022/04/17 09:39:40;;;;;;;6.97;5.68;;;16.60;69.50;;;;;;5063831;28;20430;-74
2022/04/17 09:42:06;;;;;;;7.72;6.13;;;17.10;67.60;;;;;;5069885;28;20454;-74
2022/04/17 09:44:39;;;;;;;8.13;6.00;;;17.30;64.50;;;;;;5069857;28;20461;-74
2022/04/17 09:47:07;;;;;;;6.75;5.30;;;17.50;58.30;;;;;;5069927;28;20751;-76
2022/04/17 09:49:49;;;;;;;5.32;4.68;;;17.60;60.80;;;;;;5055115;28;20433;-76
2022/04/17 09:52:15;;;;;;;6.82;5.22;;;17.80;57.50;;;;;;5066195;28;20413;-75
2022/04/17 09:54:42;;;;;;;6.90;5.30;;;18.00;55.60;;;;;;5051367;28;20462;-75
2022/04/17 09:57:08;;;;;;;6.70;5.37;;;18.10;54.40;;;;;;5051298;28;20844;-75
2022/04/17 09:59:36;;;;;;;7.45;5.85;;;18.40;57.30;;;;;;5066222;28;20923;-75
2022/04/17 10:02:02;;;;;;;6.80;5.65;;;18.60;56.40;;;;;;5070991;28;20391;-75
2022/04/17 10:04:28;;;;;;;6.40;5.22;;;18.90;53.00;;;;;;5070240;28;20402;-75
2022/04/17 10:06:56;;;;;;;7.53;5.70;;;18.90;49.90;;;;;;5068872;28;20919;-75
2022/04/17 10:09:22;;;;;;;7.00;5.68;;;19.00;53.50;;;;;;5050711;28;20433;-76
2022/04/17 10:11:49;;;;;;;6.72;5.38;;;19.00;53.80;;;;;;5052056;28;20494;-75
2022/04/17 10:14:15;;;;;;;8.20;5.45;;;19.20;52.00;;;;;;5069975;28;21124;-75
2022/04/17 10:16:43;;;;;;;7.97;5.60;;;19.40;52.50;;;;;;5070792;28;20481;-75
2022/04/17 10:19:14;;;;;;;7.07;5.50;;;19.70;51.90;;;;;;5070448;28;20445;-75
2022/04/17 10:21:40;;;;;;;6.97;5.35;;;19.80;51.40;;;;;;5070974;28;20766;-75
2022/04/17 10:24:10;;;;;;;7.60;5.72;;;19.90;50.40;;;;;;5070566;28;20449;-75
2022/04/17 10:26:43;;;;;;;7.22;5.25;;;19.90;51.40;;;;;;5068969;28;20750;-75
2022/04/17 10:29:13;;;;;;;7.40;5.50;;;20.00;48.80;;;;;;5071089;28;20424;-75
2022/04/17 10:32:08;;;;;;;6.67;5.30;;;20.10;47.90;;;;;;5089377;28;20471;-75
2022/04/17 10:35:12;;;;;;;6.78;5.32;;;20.20;49.20;;;;;;5072344;28;20417;-76
2022/04/17 10:38:15;;;;;;;7.03;5.40;;;20.40;48.40;;;;;;5089326;28;20471;-76
2022/04/17 10:40:59;;;;;;;6.67;5.30;;;20.50;48.40;;;;;;5088771;28;20463;-76
2022/04/17 10:43:32;;;;;;;6.20;4.78;;;20.30;46.00;;;;;;5089270;28;20493;-76
2022/04/17 10:46:14;;;;;;;6.32;4.70;;;20.30;44.70;;;;;;5089119;28;20976;-76
2022/04/17 10:49:01;;;;;;;5.85;4.53;;;20.10;46.20;;;;;;5089907;28;20926;-76
2022/04/17 10:51:36;;;;;;;6.78;5.25;;;20.40;46.90;;;;;;5089098;28;20972;-76
2022/04/17 10:54:07;;;;;;;6.75;4.70;;;20.80;47.60;;;;;;5089127;28;20418;-75
2022/04/17 10:56:41;;;;;;;6.53;4.68;;;21.00;45.90;;;;;;5088966;28;20776;-75
2022/04/17 10:59:18;;;;;;;7.13;4.67;;;21.00;45.90;;;;;;5090005;28;20409;-75
2022/04/17 11:01:44;;;;;;;6.03;4.65;;;20.70;46.50;;;;;;5090179;28;20904;-75
2022/04/17 11:04:16;;;;;;;5.70;4.63;;;20.90;45.40;;;;;;5089015;28;20410;-75
2022/04/17 11:06:42;;;;;;;6.38;4.65;;;21.20;45.70;;;;;;5089837;28;20440;-75
2022/04/17 11:09:24;;;;;;;6.30;4.60;;;21.30;44.10;;;;;;5089057;28;20437;-75
2022/04/17 11:11:51;;;;;;;5.75;4.70;;;21.40;44.20;;;;;;5088702;28;20446;-75
2022/04/17 11:14:23;;;;;;;5.72;4.65;;;21.50;41.50;;;;;;5088551;28;20406;-75
2022/04/17 11:16:59;;;;;;;7.13;4.78;;;21.50;44.00;;;;;;5089645;28;20888;-75
2022/04/17 11:19:27;;;;;;;6.47;4.90;;;21.60;43.70;;;;;;5089317;28;20408;-75
2022/04/17 11:21:56;;;;;;;7.78;4.90;;;21.80;43.00;;;;;;5089903;28;20467;-75
2022/04/17 11:24:22;;;;;;;6.38;4.70;;;21.80;41.60;;;;;;5089606;28;20402;-75
2022/04/17 11:26:54;;;;;;;6.35;4.60;;;21.80;41.70;;;;;;5089892;28;20492;-75
2022/04/17 11:29:33;;;;;;;6.07;4.90;;;21.80;42.80;;;;;;5087079;28;20430;-75
2022/04/17 11:31:58;;;;;;;5.53;4.70;;;22.00;41.10;;;;;;5069436;28;20770;-76
2022/04/17 11:34:24;;;;;;;5.75;4.63;;;22.10;42.90;;;;;;5068407;28;20408;-75
2022/04/17 11:36:50;;;;;;;5.70;4.07;;;22.20;42.50;;;;;;5068940;28;20408;-76
2022/04/17 11:39:26;;;;;;;5.15;3.92;;;22.30;40.30;;;;;;5067666;28;20443;-75
2022/04/17 11:41:52;;;;;;;4.97;4.40;;;22.30;42.10;;;;;;5067596;28;20411;-75
2022/04/17 11:44:18;;;;;;;6.10;4.40;;;22.40;42.40;;;;;;5067652;28;20400;-75
2022/04/17 11:46:43;;;;;;;5.15;4.38;;;22.40;41.30;;;;;;5069078;28;20396;-75
2022/04/17 11:49:09;;;;;;;4.60;3.90;;;22.50;40.60;;;;;;5067900;28;20446;-75
2022/04/17 11:51:44;;;;;;;5.40;4.30;;;22.70;41.00;;;;;;5067515;28;20403;-75
2022/04/17 11:54:32;;;;;;;6.07;4.43;;;22.60;38.70;;;;;;5068951;28;20396;-75
2022/04/17 11:56:58;;;;;;;5.53;4.30;;;22.40;38.10;;;;;;5067386;28;20407;-75
2022/04/17 11:59:23;;;;;;;5.73;4.43;;;22.50;40.80;;;;;;5068235;28;20407;-75
2022/04/17 12:02:14;;;;;;;6.28;4.40;;;22.60;41.20;;;;;;5067500;28;20453;-75
2022/04/17 12:04:41;;;;;;;6.13;4.53;;;22.80;40.50;;;;;;5069180;28;20751;-75
2022/04/17 12:07:08;;;;;;;5.90;4.65;;;22.70;38.10;;;;;;5066691;28;20454;-75
2022/04/17 12:09:34;;;;;;;6.10;4.82;;;22.80;40.00;;;;;;5068401;28;20431;-75
2022/04/17 12:11:59;;;;;;;5.47;4.90;;;22.90;40.20;;;;;;5067285;28;20420;-75
2022/04/17 12:14:30;;;;;;;6.47;4.53;;;23.00;39.60;;;;;;5067745;28;20504;-75
2022/04/17 12:16:56;;;;;;;6.28;4.93;;;23.00;39.30;;;;;;5067402;28;20415;-75
2022/04/17 12:19:21;;;;;;;5.90;4.55;;;23.00;39.20;;;;;;5067829;28;20408;-76
2022/04/17 12:21:48;;;;;;;6.20;4.53;;;23.10;39.70;;;;;;5068442;28;21214;-75
2022/04/17 12:24:14;;;;;;;5.10;4.30;;;23.00;37.60;;;;;;5060724;28;20425;-75
2022/04/17 12:26:40;;;;;;;5.20;4.18;;;23.00;38.80;;;;;;5065596;28;20454;-75
2022/04/17 12:29:07;;;;;;;5.22;4.30;;;23.10;38.90;;;;;;5067263;28;20551;-75
2022/04/17 12:31:36;;;;;;;5.38;4.53;;;23.20;38.10;;;;;;5087512;28;20756;-75
2022/04/17 12:34:10;;;;;;;5.57;4.55;;;23.20;38.80;;;;;;5087827;28;20504;-75
2022/04/17 12:36:42;;;;;;;4.97;4.05;;;23.40;40.20;;;;;;5063634;28;20924;-75
2022/04/17 12:39:08;;;;;;;5.03;3.73;;;23.60;40.30;;;;;;5048334;28;20420;-75
2022/04/17 12:41:42;;;;;;;5.40;4.43;;;23.70;37.20;;;;;;5047955;28;20488;-75
2022/04/17 12:44:08;;;;;;;6.00;4.13;;;23.70;37.80;;;;;;5048097;28;20495;-75
2022/04/17 12:46:42;;;;;;;5.38;4.05;;;23.60;39.10;;;;;;5048500;28;20417;-75
2022/04/17 12:49:14;;;;;;;5.55;4.22;;;23.60;39.50;;;;;;5072858;28;21057;-75
2022/04/17 12:51:52;;;;;;;5.72;4.18;;;23.70;36.40;;;;;;5048006;28;20413;-75
2022/04/17 12:54:17;;;;;;;4.90;3.70;;;23.70;36.70;;;;;;5047809;28;20405;-75
2022/04/17 12:56:43;;;;;;;4.63;3.53;;;23.80;37.30;;;;;;5051185;28;20436;-75
2022/04/17 12:59:11;;;;;;;5.13;3.47;;;24.00;36.70;;;;;;5029587;28;20937;-75
2022/04/17 13:01:40;;;;;;;4.90;3.60;;;24.00;34.80;;;;;;5046893;28;20405;-75